sensor_id;sensor_type;location;lat;lon;timestamp;pressure;altitude;pressure_sealevel;temperature;humidity
43770;BME280;6597;52.218;9.882;2023-03-21T00:00:53;100882.47;;;7.21;100.00
43770;BME280;6597;52.218;9.882;2023-03-21T00:03:20;100879.91;;;7.19;100.00
43770;BME280;6597;52.218;9.882;2023-03-21T00:05:48;100871.28;;;7.15;100.00
43770;BME280;6597;52.218;9.882;2023-03-21T00:08:18;100871.28;;;7.14;100.00
43770;BME280;6597;52.218;9.882;2023-03-21T00:10:45;100864.31;;;7.14;100.00
43770;BME280;6597;52.218;9.882;2023-03-21T00:13:12;100865.16;;;7.15;100.00
43770;BME280;6597;52.218;9.882;2023-03-21T00:15:40;100873.88;;;7.14;100.00
43770;BME280;6597;52.218;9.882;2023-03-21T00:18:15;100867.88;;;7.10;100.00
43770;BME280;6597;52.218;9.882;2023-03-21T00:20:42;100872.25;;;7.08;100.00
43770;BME280;6597;52.218;9.882;2023-03-21T00:23:12;100859.19;;;7.08;100.00
43770;BME280;6597;52.218;9.882;2023-03-21T00:25:40;100857.41;;;7.10;100.00
43770;BME280;6597;52.218;9.882;2023-03-21T00:28:06;100857.38;;;7.12;100.00
43770;BME280;6597;52.218;9.882;2023-03-21T00:30:33;100857.34;;;7.13;100.00
43770;BME280;6597;52.218;9.882;2023-03-21T00:32:59;100857.34;;;7.16;100.00
43770;BME280;6597;52.218;9.882;2023-03-21T00:35:26;100849.50;;;7.15;100.00
43770;BME280;6597;52.218;9.882;2023-03-21T00:37:52;100851.19;;;7.19;100.00
43770;BME280;6597;52.218;9.882;2023-03-21T00:40:20;100850.19;;;7.25;100.00
43770;BME280;6597;52.218;9.882;2023-03-21T00:42:47;100846.69;;;7.26;100.00
43770;BME280;6597;52.218;9.882;2023-03-21T00:45:13;100845.78;;;7.28;100.00
43770;BME280;6597;52.218;9.882;2023-03-21T00:47:41;100847.56;;;7.26;100.00
43770;BME280;6597;52.218;9.882;2023-03-21T00:50:09;100851.84;;;7.29;100.00
43770;BME280;6597;52.218;9.882;2023-03-21T00:52:37;100847.53;;;7.28;100.00
43770;BME280;6597;52.218;9.882;2023-03-21T00:55:05;100841.34;;;7.32;100.00
43770;BME280;6597;52.218;9.882;2023-03-21T00:57:34;100838.69;;;7.33;100.00
43770;BME280;6597;52.218;9.882;2023-03-21T01:00:02;100837.94;;;7.28;100.00
43770;BME280;6597;52.218;9.882;2023-03-21T01:02:31;100830.97;;;7.29;100.00
43770;BME280;6597;52.218;9.882;2023-03-21T01:04:58;100838.69;;;7.33;100.00
43770;BME280;6597;52.218;9.882;2023-03-21T01:07:24;100830.97;;;7.29;100.00
43770;BME280;6597;52.218;9.882;2023-03-21T01:09:51;100833.59;;;7.27;100.00
43770;BME280;6597;52.218;9.882;2023-03-21T01:12:18;100831.84;;;7.28;100.00
43770;BME280;6597;52.218;9.882;2023-03-21T01:14:45;100822.25;;;7.30;100.00
43770;BME280;6597;52.218;9.882;2023-03-21T01:17:12;100821.38;;;7.29;100.00
43770;BME280;6597;52.218;9.882;2023-03-21T01:19:39;100829.19;;;7.31;100.00
43770;BME280;6597;52.218;9.882;2023-03-21T01:22:05;100817.78;;;7.35;100.00
43770;BME280;6597;52.218;9.882;2023-03-21T01:24:33;100821.25;;;7.35;100.00
43770;BME280;6597;52.218;9.882;2023-03-21T01:27:01;100825.53;;;7.38;100.00
43770;BME280;6597;52.218;9.882;2023-03-21T01:29:27;100810.00;;;7.32;100.00
43770;BME280;6597;52.218;9.882;2023-03-21T01:31:57;100815.22;;;7.32;100.00
43770;BME280;6597;52.218;9.882;2023-03-21T01:34:24;100817.81;;;7.33;100.00
43770;BME280;6597;52.218;9.882;2023-03-21T01:36:50;100807.38;;;7.33;100.00
43770;BME280;6597;52.218;9.882;2023-03-21T01:39:19;100815.97;;;7.38;100.00
43770;BME280;6597;52.218;9.882;2023-03-21T01:41:47;100818.47;;;7.43;100.00
43770;BME280;6597;52.218;9.882;2023-03-21T01:44:18;100819.41;;;7.40;100.00
43770;BME280;6597;52.218;9.882;2023-03-21T01:46:46;100822.03;;;7.39;100.00
43770;BME280;6597;52.218;9.882;2023-03-21T01:49:46;100819.41;;;7.40;100.00
43770;BME280;6597;52.218;9.882;2023-03-21T01:52:27;100807.19;;;7.41;100.00
43770;BME280;6597;52.218;9.882;2023-03-21T01:54:55;100807.13;;;7.44;100.00
43770;BME280;6597;52.218;9.882;2023-03-21T01:57:26;100803.72;;;7.40;100.00
43770;BME280;6597;52.218;9.882;2023-03-21T01:59:57;100806.41;;;7.37;100.00
43770;BME280;6597;52.218;9.882;2023-03-21T02:02:52;100806.50;;;7.33;100.00
43770;BME280;6597;52.218;9.882;2023-03-21T02:05:39;100800.53;;;7.28;100.00
43770;BME280;6597;52.218;9.882;2023-03-21T02:08:10;100797.06;;;7.27;100.00
43770;BME280;6597;52.218;9.882;2023-03-21T02:10:39;100799.63;;;7.29;100.00
43770;BME280;6597;52.218;9.882;2023-03-21T02:13:09;100797.88;;;7.29;100.00
43770;BME280;6597;52.218;9.882;2023-03-21T02:15:41;100796.13;;;7.30;100.00
43770;BME280;6597;52.218;9.882;2023-03-21T02:18:23;100790.03;;;7.29;100.00
43770;BME280;6597;52.218;9.882;2023-03-21T02:21:26;100784.78;;;7.31;100.00
43770;BME280;6597;52.218;9.882;2023-03-21T02:24:33;100787.34;;;7.34;100.00
43770;BME280;6597;52.218;9.882;2023-03-21T02:27:07;100779.47;;;7.35;100.00
43770;BME280;6597;52.218;9.882;2023-03-21T02:30:03;100778.59;;;7.35;100.00
43770;BME280;6597;52.218;9.882;2023-03-21T02:33:05;100777.72;;;7.36;100.00
43770;BME280;6597;52.218;9.882;2023-03-21T02:35:51;100779.41;;;7.38;100.00
43770;BME280;6597;52.218;9.882;2023-03-21T02:38:30;100766.22;;;7.43;100.00
43770;BME280;6597;52.218;9.882;2023-03-21T02:41:04;100778.47;;;7.41;100.00
43770;BME280;6597;52.218;9.882;2023-03-21T02:43:38;100768.06;;;7.39;100.00
43770;BME280;6597;52.218;9.882;2023-03-21T02:46:13;100769.66;;;7.45;100.00
43770;BME280;6597;52.218;9.882;2023-03-21T02:48:46;100780.19;;;7.42;100.00
43770;BME280;6597;52.218;9.882;2023-03-21T02:51:16;100772.34;;;7.42;100.00
43770;BME280;6597;52.218;9.882;2023-03-21T02:53:49;100764.56;;;7.40;100.00
43770;BME280;6597;52.218;9.882;2023-03-21T02:56:18;100768.94;;;7.38;100.00
43770;BME280;6597;52.218;9.882;2023-03-21T02:58:52;100764.47;;;7.43;100.00
43770;BME280;6597;52.218;9.882;2023-03-21T03:01:19;100761.84;;;7.45;100.00
43770;BME280;6597;52.218;9.882;2023-03-21T03:03:47;100758.44;;;7.41;100.00
43770;BME280;6597;52.218;9.882;2023-03-21T03:06:16;100762.81;;;7.41;100.00
43770;BME280;6597;52.218;9.882;2023-03-21T03:08:55;100751.56;;;7.37;100.00
43770;BME280;6597;52.218;9.882;2023-03-21T03:11:28;100760.22;;;7.39;100.00
43770;BME280;6597;52.218;9.882;2023-03-21T03:14:08;100749.81;;;7.38;100.00
43770;BME280;6597;52.218;9.882;2023-03-21T03:16:47;100756.75;;;7.39;100.00
43770;BME280;6597;52.218;9.882;2023-03-21T03:19:21;100755.78;;;7.43;100.00
43770;BME280;6597;52.218;9.882;2023-03-21T03:21:55;100754.00;;;7.45;100.00
43770;BME280;6597;52.218;9.882;2023-03-21T03:24:28;100742.63;;;7.47;100.00
43770;BME280;6597;52.218;9.882;2023-03-21T03:26:59;100742.59;;;7.51;100.00
43770;BME280;6597;52.218;9.882;2023-03-21T03:29:29;100746.94;;;7.50;100.00
43770;BME280;6597;52.218;9.882;2023-03-21T03:31:59;100742.59;;;7.51;100.00
43770;BME280;6597;52.218;9.882;2023-03-21T03:34:32;100743.38;;;7.54;100.00
43770;BME280;6597;52.218;9.882;2023-03-21T03:37:07;100743.38;;;7.54;100.00
43770;BME280;6597;52.218;9.882;2023-03-21T03:39:38;100741.69;;;7.52;100.00
43770;BME280;6597;52.218;9.882;2023-03-21T03:42:12;100744.38;;;7.48;100.00
43770;BME280;6597;52.218;9.882;2023-03-21T03:44:43;100744.41;;;7.45;100.00
43770;BME280;6597;52.218;9.882;2023-03-21T03:47:14;100742.72;;;7.43;100.00
43770;BME280;6597;52.218;9.882;2023-03-21T03:49:45;100743.75;;;7.36;100.00
43770;BME280;6597;52.218;9.882;2023-03-21T03:52:17;100745.50;;;7.35;100.00
43770;BME280;6597;52.218;9.882;2023-03-21T03:54:52;100745.63;;;7.31;100.00
43770;BME280;6597;52.218;9.882;2023-03-21T03:57:24;100739.53;;;7.30;100.00
43770;BME280;6597;52.218;9.882;2023-03-21T03:59:52;100737.88;;;7.26;100.00
43770;BME280;6597;52.218;9.882;2023-03-21T04:02:23;100742.28;;;7.24;100.00
43770;BME280;6597;52.218;9.882;2023-03-21T04:04:51;100737.22;;;7.18;100.00
43770;BME280;6597;52.218;9.882;2023-03-21T04:07:18;100733.78;;;7.16;100.00
43770;BME280;6597;52.218;9.882;2023-03-21T04:09:46;100741.56;;;7.17;100.00
43770;BME280;6597;52.218;9.882;2023-03-21T04:12:18;100730.28;;;7.17;100.00
43770;BME280;6597;52.218;9.882;2023-03-21T04:15:04;100742.41;;;7.20;100.00
43770;BME280;6597;52.218;9.882;2023-03-21T04:17:31;100732.84;;;7.18;100.00
43770;BME280;6597;52.218;9.882;2023-03-21T04:19:57;100737.22;;;7.18;100.00
43770;BME280;6597;52.218;9.882;2023-03-21T04:22:24;100733.69;;;7.19;100.00
43770;BME280;6597;52.218;9.882;2023-03-21T04:24:52;100731.94;;;7.20;100.00
43770;BME280;6597;52.218;9.882;2023-03-21T04:27:20;100732.81;;;7.20;100.00
43770;BME280;6597;52.218;9.882;2023-03-21T04:30:05;100727.56;;;7.22;100.00
43770;BME280;6597;52.218;9.882;2023-03-21T04:32:47;100733.59;;;7.24;100.00
43770;BME280;6597;52.218;9.882;2023-03-21T04:35:19;100725.81;;;7.22;100.00
43770;BME280;6597;52.218;9.882;2023-03-21T04:37:46;100725.72;;;7.25;100.00
43770;BME280;6597;52.218;9.882;2023-03-21T04:40:14;100730.09;;;7.25;100.00
43770;BME280;6597;52.218;9.882;2023-03-21T04:42:43;100728.31;;;7.27;100.00
43770;BME280;6597;52.218;9.882;2023-03-21T04:45:11;100725.69;;;7.27;100.00
43770;BME280;6597;52.218;9.882;2023-03-21T04:47:38;100723.09;;;7.27;100.00
43770;BME280;6597;52.218;9.882;2023-03-21T04:50:05;100726.53;;;7.29;100.00
43770;BME280;6597;52.218;9.882;2023-03-21T04:52:32;100730.88;;;7.28;100.00
43770;BME280;6597;52.218;9.882;2023-03-21T04:54:59;100728.25;;;7.30;100.00
43770;BME280;6597;52.218;9.882;2023-03-21T04:57:26;100733.47;;;7.30;100.00
43770;BME280;6597;52.218;9.882;2023-03-21T04:59:54;100730.81;;;7.31;100.00
43770;BME280;6597;52.218;9.882;2023-03-21T05:02:21;100729.16;;;7.27;100.00
43770;BME280;6597;52.218;9.882;2023-03-21T05:04:47;100735.22;;;7.29;100.00
43770;BME280;6597;52.218;9.882;2023-03-21T05:07:14;100725.59;;;7.31;100.00
43770;BME280;6597;52.218;9.882;2023-03-21T05:09:40;100724.69;;;7.32;100.00
43770;BME280;6597;52.218;9.882;2023-03-21T05:12:07;100726.44;;;7.32;100.00
43770;BME280;6597;52.218;9.882;2023-03-21T05:14:34;100723.81;;;7.33;100.00
43770;BME280;6597;52.218;9.882;2023-03-21T05:17:02;100727.19;;;7.37;100.00
43770;BME280;6597;52.218;9.882;2023-03-21T05:19:30;100722.06;;;7.34;100.00
43770;BME280;6597;52.218;9.882;2023-03-21T05:22:02;100727.16;;;7.38;100.00
43770;BME280;6597;52.218;9.882;2023-03-21T05:24:30;100722.72;;;7.42;100.00
43770;BME280;6597;52.218;9.882;2023-03-21T05:26:59;100725.38;;;7.40;100.00
43770;BME280;6597;52.218;9.882;2023-03-21T05:29:28;100722.63;;;7.46;100.00
43770;BME280;6597;52.218;9.882;2023-03-21T05:32:05;100723.47;;;7.47;100.00
43770;BME280;6597;52.218;9.882;2023-03-21T05:34:32;100721.72;;;7.47;100.00
43770;BME280;6597;52.218;9.882;2023-03-21T05:37:00;100729.56;;;7.47;100.00
43770;BME280;6597;52.218;9.882;2023-03-21T05:39:37;100720.00;;;7.48;100.00
43770;BME280;6597;52.218;9.882;2023-03-21T05:42:10;100724.28;;;7.51;100.00
43770;BME280;6597;52.218;9.882;2023-03-21T05:44:37;100723.41;;;7.52;100.00
43770;BME280;6597;52.218;9.882;2023-03-21T05:47:06;100711.94;;;7.57;100.00
43770;BME280;6597;52.218;9.882;2023-03-21T05:49:45;100717.03;;;7.63;100.00
43770;BME280;6597;52.218;9.882;2023-03-21T05:52:12;100718.63;;;7.69;100.00
43770;BME280;6597;52.218;9.882;2023-03-21T05:54:39;100716.75;;;7.74;100.00
43770;BME280;6597;52.218;9.882;2023-03-21T05:57:06;100713.16;;;7.78;100.00
43770;BME280;6597;52.218;9.882;2023-03-21T05:59:48;100708.72;;;7.83;100.00
43770;BME280;6597;52.218;9.882;2023-03-21T06:02:18;100708.53;;;7.91;100.00
43770;BME280;6597;52.218;9.882;2023-03-21T06:04:46;100705.81;;;7.94;100.00
43770;BME280;6597;52.218;9.882;2023-03-21T06:07:12;100710.03;;;7.99;100.00
43770;BME280;6597;52.218;9.882;2023-03-21T06:09:40;100709.97;;;8.02;100.00
43770;BME280;6597;52.218;9.882;2023-03-21T06:12:07;100715.03;;;8.08;100.00
43770;BME280;6597;52.218;9.882;2023-03-21T06:14:52;100717.59;;;8.10;100.00
43770;BME280;6597;52.218;9.882;2023-03-21T06:17:33;100719.31;;;8.11;100.00
43770;BME280;6597;52.218;9.882;2023-03-21T06:20:05;100717.59;;;8.10;100.00
43770;BME280;6597;52.218;9.882;2023-03-21T06:22:38;100722.69;;;8.16;100.00
43770;BME280;6597;52.218;9.882;2023-03-21T06:25:06;100719.16;;;8.19;100.00
43770;BME280;6597;52.218;9.882;2023-03-21T06:27:33;100723.50;;;8.18;100.00
43770;BME280;6597;52.218;9.882;2023-03-21T06:30:00;100722.53;;;8.22;100.00
43770;BME280;6597;52.218;9.882;2023-03-21T06:32:34;100724.34;;;8.20;100.00
43770;BME280;6597;52.218;9.882;2023-03-21T06:35:08;100726.94;;;8.20;100.00
43770;BME280;6597;52.218;9.882;2023-03-21T06:37:35;100724.25;;;8.23;100.00
43770;BME280;6597;52.218;9.882;2023-03-21T06:40:02;100724.28;;;8.22;100.00
43770;BME280;6597;52.218;9.882;2023-03-21T06:42:30;100722.44;;;8.25;100.00
43770;BME280;6597;52.218;9.882;2023-03-21T06:45:01;100719.78;;;8.27;100.00
43770;BME280;6597;52.218;9.882;2023-03-21T06:47:28;100731.13;;;8.27;100.00
43770;BME280;6597;52.218;9.882;2023-03-21T06:49:56;100723.16;;;8.32;100.00
43770;BME280;6597;52.218;9.882;2023-03-21T06:52:23;100735.31;;;8.34;100.00
43770;BME280;6597;52.218;9.882;2023-03-21T06:54:51;100727.28;;;8.40;100.00
43770;BME280;6597;52.218;9.882;2023-03-21T06:57:19;100724.72;;;8.39;100.00
43770;BME280;6597;52.218;9.882;2023-03-21T06:59:47;100727.34;;;8.39;100.00
43770;BME280;6597;52.218;9.882;2023-03-21T07:02:17;100721.13;;;8.43;100.00
43770;BME280;6597;52.218;9.882;2023-03-21T07:04:58;100724.56;;;8.45;100.00
43770;BME280;6597;52.218;9.882;2023-03-21T07:07:27;100727.06;;;8.50;100.00
43770;BME280;6597;52.218;9.882;2023-03-21T07:09:54;100723.56;;;8.51;100.00
43770;BME280;6597;52.218;9.882;2023-03-21T07:12:22;100730.50;;;8.52;100.00
43770;BME280;6597;52.218;9.882;2023-03-21T07:15:11;100725.16;;;8.56;100.00
43770;BME280;6597;52.218;9.882;2023-03-21T07:17:40;100725.97;;;8.58;100.00
43770;BME280;6597;52.218;9.882;2023-03-21T07:20:09;100735.44;;;8.62;100.00
43770;BME280;6597;52.218;9.882;2023-03-21T07:22:37;100731.06;;;8.63;100.00
43770;BME280;6597;52.218;9.882;2023-03-21T07:25:05;100725.75;;;8.66;100.00
43770;BME280;6597;52.218;9.882;2023-03-21T07:27:37;100729.91;;;8.73;100.00
43770;BME280;6597;52.218;9.882;2023-03-21T07:30:04;100723.66;;;8.79;100.00
43770;BME280;6597;52.218;9.882;2023-03-21T07:32:31;100728.03;;;8.78;100.00
43770;BME280;6597;52.218;9.882;2023-03-21T07:34:58;100723.53;;;8.83;100.00
43770;BME280;6597;52.218;9.882;2023-03-21T07:37:26;100724.28;;;8.87;100.00
43770;BME280;6597;52.218;9.882;2023-03-21T07:39:53;100725.06;;;8.90;100.00
43770;BME280;6597;52.218;9.882;2023-03-21T07:42:22;100720.69;;;8.91;100.00
43770;BME280;6597;52.218;9.882;2023-03-21T07:44:52;100713.56;;;8.96;100.00
43770;BME280;6597;52.218;9.882;2023-03-21T07:47:19;100709.97;;;8.98;100.00
43770;BME280;6597;52.218;9.882;2023-03-21T07:49:46;100713.31;;;9.03;100.00
43770;BME280;6597;52.218;9.882;2023-03-21T07:52:12;100704.41;;;9.09;100.00
43770;BME280;6597;52.218;9.882;2023-03-21T07:54:41;100707.75;;;9.16;100.00
43770;BME280;6597;52.218;9.882;2023-03-21T07:57:07;100712.78;;;9.22;100.00
43770;BME280;6597;52.218;9.882;2023-03-21T07:59:34;100713.34;;;9.31;100.00
43770;BME280;6597;52.218;9.882;2023-03-21T08:02:01;100713.03;;;9.42;100.00
43770;BME280;6597;52.218;9.882;2023-03-21T08:04:27;100708.41;;;9.50;100.00
43770;BME280;6597;52.218;9.882;2023-03-21T08:06:54;100714.97;;;9.63;100.00
43770;BME280;6597;52.218;9.882;2023-03-21T08:09:21;100710.06;;;9.81;100.00
43770;BME280;6597;52.218;9.882;2023-03-21T08:11:49;100710.66;;;9.89;100.00
43770;BME280;6597;52.218;9.882;2023-03-21T08:14:16;100708.59;;;9.98;100.00
43770;BME280;6597;52.218;9.882;2023-03-21T08:16:42;100705.56;;;10.11;100.00
43770;BME280;6597;52.218;9.882;2023-03-21T08:19:09;100715.84;;;10.17;97.75
43770;BME280;6597;52.218;9.882;2023-03-21T08:21:35;100719.09;;;10.25;96.90
43770;BME280;6597;52.218;9.882;2023-03-21T08:24:03;100715.44;;;10.29;96.10
43770;BME280;6597;52.218;9.882;2023-03-21T08:26:31;100706.78;;;10.27;96.14
43770;BME280;6597;52.218;9.882;2023-03-21T08:28:59;100713.84;;;10.25;94.67
43770;BME280;6597;52.218;9.882;2023-03-21T08:31:26;100720.38;;;10.38;96.73
43770;BME280;6597;52.218;9.882;2023-03-21T08:33:53;100713.28;;;10.42;96.17
43770;BME280;6597;52.218;9.882;2023-03-21T08:36:20;100715.78;;;10.45;97.00
43770;BME280;6597;52.218;9.882;2023-03-21T08:38:47;100719.69;;;10.58;94.85
43770;BME280;6597;52.218;9.882;2023-03-21T08:41:18;100709.94;;;10.62;95.45
43770;BME280;6597;52.218;9.882;2023-03-21T08:43:46;100718.94;;;10.79;93.84
43770;BME280;6597;52.218;9.882;2023-03-21T08:46:14;100706.75;;;10.77;92.21
43770;BME280;6597;52.218;9.882;2023-03-21T08:48:41;100714.75;;;10.74;93.76
43770;BME280;6597;52.218;9.882;2023-03-21T08:51:08;100709.75;;;10.66;93.18
43770;BME280;6597;52.218;9.882;2023-03-21T08:53:34;100709.53;;;10.72;94.15
43770;BME280;6597;52.218;9.882;2023-03-21T08:56:01;100718.53;;;10.65;92.70
43770;BME280;6597;52.218;9.882;2023-03-21T08:58:27;100713.63;;;10.56;93.25
43770;BME280;6597;52.218;9.882;2023-03-21T09:00:54;100720.47;;;10.60;94.63
43770;BME280;6597;52.218;9.882;2023-03-21T09:03:22;100710.78;;;10.62;93.79
43770;BME280;6597;52.218;9.882;2023-03-21T09:05:51;100713.41;;;10.62;93.76
43770;BME280;6597;52.218;9.882;2023-03-21T09:08:18;100710.34;;;10.74;93.69
43770;BME280;6597;52.218;9.882;2023-03-21T09:10:47;100697.69;;;10.85;91.96
43770;BME280;6597;52.218;9.882;2023-03-21T09:13:14;100700.75;;;10.97;91.21
43770;BME280;6597;52.218;9.882;2023-03-21T09:15:41;100711.16;;;11.00;89.99
43770;BME280;6597;52.218;9.882;2023-03-21T09:18:07;100705.56;;;11.09;90.04
43770;BME280;6597;52.218;9.882;2023-03-21T09:20:42;100699.00;;;11.42;89.81
43770;BME280;6597;52.218;9.882;2023-03-21T09:23:12;100698.72;;;11.72;87.08
43770;BME280;6597;52.218;9.882;2023-03-21T09:25:39;100704.53;;;12.00;86.93
43770;BME280;6597;52.218;9.882;2023-03-21T09:28:07;100699.38;;;12.19;85.07
43770;BME280;6597;52.218;9.882;2023-03-21T09:30:35;100706.03;;;12.28;83.92
43770;BME280;6597;52.218;9.882;2023-03-21T09:33:04;100706.56;;;12.36;82.52
43770;BME280;6597;52.218;9.882;2023-03-21T09:35:32;100706.50;;;12.37;83.24
43770;BME280;6597;52.218;9.882;2023-03-21T09:38:00;100701.81;;;12.24;80.64
43770;BME280;6597;52.218;9.882;2023-03-21T09:40:38;100713.72;;;12.12;81.88
43770;BME280;6597;52.218;9.882;2023-03-21T09:43:18;100703.25;;;12.10;84.18
43770;BME280;6597;52.218;9.882;2023-03-21T09:45:53;100694.38;;;12.13;83.26
43770;BME280;6597;52.218;9.882;2023-03-21T09:48:33;100697.34;;;12.26;83.19
43770;BME280;6597;52.218;9.882;2023-03-21T09:51:01;100697.75;;;12.37;82.19
43770;BME280;6597;52.218;9.882;2023-03-21T09:53:33;100692.31;;;12.60;81.55
43770;BME280;6597;52.218;9.882;2023-03-21T09:56:01;100701.81;;;12.83;80.74
43770;BME280;6597;52.218;9.882;2023-03-21T09:58:32;100698.84;;;12.91;77.99
43770;BME280;6597;52.218;9.882;2023-03-21T10:01:05;100702.56;;;13.05;78.63
43770;BME280;6597;52.218;9.882;2023-03-21T10:03:47;100694.28;;;13.13;78.56
43770;BME280;6597;52.218;9.882;2023-03-21T10:06:15;100702.28;;;13.12;77.70
43770;BME280;6597;52.218;9.882;2023-03-21T10:08:46;100693.59;;;13.09;78.04
43770;BME280;6597;52.218;9.882;2023-03-21T10:11:18;100697.97;;;12.90;77.29
43770;BME280;6597;52.218;9.882;2023-03-21T10:13:48;100695.50;;;12.87;77.06
43770;BME280;6597;52.218;9.882;2023-03-21T10:16:20;100686.84;;;12.65;78.42
43770;BME280;6597;52.218;9.882;2023-03-21T10:18:48;100690.03;;;12.53;79.72
43770;BME280;6597;52.218;9.882;2023-03-21T10:21:19;100683.91;;;12.52;80.43
43770;BME280;6597;52.218;9.882;2023-03-21T10:23:48;100684.03;;;12.49;80.34
43770;BME280;6597;52.218;9.882;2023-03-21T10:26:17;100686.88;;;12.44;80.44
43770;BME280;6597;52.218;9.882;2023-03-21T10:28:44;100683.44;;;12.22;82.26
43770;BME280;6597;52.218;9.882;2023-03-21T10:31:15;100688.41;;;12.09;83.02
43770;BME280;6597;52.218;9.882;2023-03-21T10:33:45;100696.59;;;12.02;84.37
43770;BME280;6597;52.218;9.882;2023-03-21T10:36:14;100687.44;;;11.90;82.64
43770;BME280;6597;52.218;9.882;2023-03-21T10:38:45;100682.44;;;11.84;83.67
43770;BME280;6597;52.218;9.882;2023-03-21T10:41:14;100682.88;;;11.73;84.76
43770;BME280;6597;52.218;9.882;2023-03-21T10:43:41;100688.00;;;11.54;86.92
43770;BME280;6597;52.218;9.882;2023-03-21T10:46:12;100684.09;;;11.43;88.80
43770;BME280;6597;52.218;9.882;2023-03-21T10:48:41;100686.00;;;11.39;90.37
43770;BME280;6597;52.218;9.882;2023-03-21T10:51:15;100677.53;;;11.31;91.04
43770;BME280;6597;52.218;9.882;2023-03-21T10:53:45;100684.44;;;11.34;93.15
43770;BME280;6597;52.218;9.882;2023-03-21T10:56:17;100676.91;;;11.25;91.97
43770;BME280;6597;52.218;9.882;2023-03-21T10:58:49;100684.13;;;11.19;92.54
43770;BME280;6597;52.218;9.882;2023-03-21T11:01:24;100672.81;;;11.17;92.70
43770;BME280;6597;52.218;9.882;2023-03-21T11:03:56;100676.88;;;11.03;95.44
43770;BME280;6597;52.218;9.882;2023-03-21T11:06:26;100673.81;;;10.91;97.84
43770;BME280;6597;52.218;9.882;2023-03-21T11:08:57;100672.94;;;10.68;99.57
43770;BME280;6597;52.218;9.882;2023-03-21T11:11:31;100673.28;;;10.58;100.00
43770;BME280;6597;52.218;9.882;2023-03-21T11:14:00;100676.88;;;10.56;100.00
43770;BME280;6597;52.218;9.882;2023-03-21T11:16:35;100666.66;;;10.48;100.00
43770;BME280;6597;52.218;9.882;2023-03-21T11:19:12;100664.78;;;10.52;100.00
43770;BME280;6597;52.218;9.882;2023-03-21T11:21:39;100665.25;;;10.63;100.00
43770;BME280;6597;52.218;9.882;2023-03-21T11:24:11;100671.91;;;10.72;100.00
43770;BME280;6597;52.218;9.882;2023-03-21T11:26:41;100667.38;;;10.77;100.00
43770;BME280;6597;52.218;9.882;2023-03-21T11:29:30;100655.97;;;10.78;100.00
43770;BME280;6597;52.218;9.882;2023-03-21T11:32:00;100660.97;;;10.84;100.00
43770;BME280;6597;52.218;9.882;2023-03-21T11:34:30;100664.94;;;10.71;100.00
43770;BME280;6597;52.218;9.882;2023-03-21T11:37:00;100661.53;;;10.69;100.00
43770;BME280;6597;52.218;9.882;2023-03-21T11:39:31;100651.38;;;10.59;100.00
43770;BME280;6597;52.218;9.882;2023-03-21T11:41:59;100649.66;;;10.58;100.00
43770;BME280;6597;52.218;9.882;2023-03-21T11:44:29;100651.66;;;10.52;100.00
43770;BME280;6597;52.218;9.882;2023-03-21T11:46:56;100649.38;;;10.43;100.00
43770;BME280;6597;52.218;9.882;2023-03-21T11:49:24;100637.59;;;10.29;100.00
43770;BME280;6597;52.218;9.882;2023-03-21T11:52:03;100644.78;;;10.24;100.00
43770;BME280;6597;52.218;9.882;2023-03-21T11:54:39;100637.22;;;10.15;100.00
43770;BME280;6597;52.218;9.882;2023-03-21T11:57:17;100641.75;;;10.10;100.00
43770;BME280;6597;52.218;9.882;2023-03-21T11:59:53;100637.50;;;10.06;100.00
43770;BME280;6597;52.218;9.882;2023-03-21T12:05:38;100627.78;;;10.10;100.00
43770;BME280;6597;52.218;9.882;2023-03-21T12:08:23;100627.88;;;10.07;100.00
43770;BME280;6597;52.218;9.882;2023-03-21T12:11:01;100625.31;;;10.05;100.00
43770;BME280;6597;52.218;9.882;2023-03-21T12:13:41;100626.22;;;10.04;100.00
43770;BME280;6597;52.218;9.882;2023-03-21T12:16:21;100619.19;;;10.05;100.00
43770;BME280;6597;52.218;9.882;2023-03-21T12:19:04;100618.16;;;10.10;100.00
43770;BME280;6597;52.218;9.882;2023-03-21T12:21:41;100616.41;;;10.11;100.00
43770;BME280;6597;52.218;9.882;2023-03-21T12:24:12;100616.41;;;10.11;100.00
43770;BME280;6597;52.218;9.882;2023-03-21T12:26:46;100609.38;;;10.11;100.00
43770;BME280;6597;52.218;9.882;2023-03-21T12:29:30;100607.44;;;10.16;100.00
43770;BME280;6597;52.218;9.882;2023-03-21T12:32:09;100612.75;;;10.15;100.00
43770;BME280;6597;52.218;9.882;2023-03-21T12:35:01;100603.97;;;10.16;100.00
43770;BME280;6597;52.218;9.882;2023-03-21T12:37:37;100603.84;;;10.20;100.00
43770;BME280;6597;52.218;9.882;2023-03-21T12:40:11;100597.50;;;10.26;100.00
43770;BME280;6597;52.218;9.882;2023-03-21T12:42:58;100598.97;;;10.33;100.00
43770;BME280;6597;52.218;9.882;2023-03-21T12:45:33;100606.00;;;10.33;100.00
43770;BME280;6597;52.218;9.882;2023-03-21T12:48:11;100599.09;;;10.30;100.00
43770;BME280;6597;52.218;9.882;2023-03-21T12:50:40;100599.28;;;10.25;100.00
43770;BME280;6597;52.218;9.882;2023-03-21T12:53:27;100588.84;;;10.24;100.00
43770;BME280;6597;52.218;9.882;2023-03-21T12:55:59;100594.94;;;10.24;100.00
43770;BME280;6597;52.218;9.882;2023-03-21T12:58:27;100590.50;;;10.26;100.00
43770;BME280;6597;52.218;9.882;2023-03-21T13:00:59;100585.25;;;10.26;100.00
43770;BME280;6597;52.218;9.882;2023-03-21T13:03:31;100586.03;;;10.28;100.00
43770;BME280;6597;52.218;9.882;2023-03-21T13:06:00;100582.28;;;10.36;100.00
43770;BME280;6597;52.218;9.882;2023-03-21T13:08:32;100569.88;;;10.41;100.00
43770;BME280;6597;52.218;9.882;2023-03-21T13:11:01;100575.09;;;10.41;100.00
43770;BME280;6597;52.218;9.882;2023-03-21T13:13:33;100566.53;;;10.36;100.00
43770;BME280;6597;52.218;9.882;2023-03-21T13:16:07;100565.97;;;10.27;100.00
43770;BME280;6597;52.218;9.882;2023-03-21T13:18:46;100561.81;;;10.22;100.00
43770;BME280;6597;52.218;9.882;2023-03-21T13:21:17;100570.66;;;10.18;100.00